createdAt,value
2018-06-14T00:00:29.649Z,0.00
2018-06-14T00:01:29.647Z,0.00
2018-06-14T00:02:29.645Z,0.00
2018-06-14T00:03:29.642Z,0.00
2018-06-14T00:04:29.634Z,0.00
2018-06-14T00:05:29.629Z,0.00
2018-06-14T00:06:29.620Z,0.00
2018-06-14T00:07:29.614Z,0.00
2018-06-14T00:08:29.610Z,0.00
2018-06-14T00:09:29.607Z,0.00
2018-06-14T00:10:29.605Z,0.00
2018-06-14T00:11:29.600Z,0.00
2018-06-14T00:12:29.593Z,0.00
2018-06-14T00:13:29.585Z,0.00
2018-06-14T00:14:29.585Z,0.00
2018-06-14T00:15:29.580Z,0.00
2018-06-14T00:16:29.575Z,0.00
2018-06-14T00:17:29.575Z,0.00
2018-06-14T00:18:29.561Z,0.00
2018-06-14T00:19:29.555Z,0.00
2018-06-14T00:20:29.555Z,0.00
2018-06-14T00:21:29.545Z,0.00
2018-06-14T00:22:29.545Z,0.00
2018-06-14T00:23:29.540Z,0.00
2018-06-14T00:24:29.535Z,0.00
2018-06-14T00:25:29.529Z,0.00
2018-06-14T00:26:29.521Z,0.00
2018-06-14T00:27:29.514Z,0.00
2018-06-14T00:28:29.515Z,0.00
2018-06-14T00:29:29.511Z,0.00
2018-06-14T00:30:29.500Z,0.00
2018-06-14T00:31:29.498Z,0.00
2018-06-14T00:32:29.489Z,0.00
2018-06-14T00:33:29.485Z,0.00
2018-06-14T00:34:29.483Z,0.00
2018-06-14T00:35:29.478Z,0.00
2018-06-14T00:36:29.473Z,0.00
2018-06-14T00:37:29.470Z,0.00
2018-06-14T00:38:29.459Z,0.00
2018-06-14T00:39:29.453Z,0.00
2018-06-14T00:40:29.458Z,0.00
2018-06-14T00:41:29.443Z,0.00
2018-06-14T00:42:29.443Z,0.00
2018-06-14T00:43:29.438Z,0.00
2018-06-14T00:44:29.431Z,0.00
2018-06-14T00:45:29.424Z,0.00
2018-06-14T00:46:29.423Z,0.00
2018-06-14T00:47:29.417Z,0.00
2018-06-14T00:48:29.412Z,0.00
2018-06-14T00:49:29.406Z,0.00
2018-06-14T00:50:29.398Z,0.00
2018-06-14T00:51:29.391Z,0.00
2018-06-14T00:52:29.386Z,0.00
2018-06-14T00:53:29.383Z,0.00
2018-06-14T00:54:29.380Z,0.00
2018-06-14T00:55:29.374Z,0.00
2018-06-14T00:56:29.370Z,0.00
2018-06-14T00:57:29.364Z,0.00
2018-06-14T00:58:29.357Z,0.00
2018-06-14T00:59:29.349Z,0.00
2018-06-14T01:00:29.348Z,0.00
2018-06-14T01:01:29.344Z,0.00
2018-06-14T01:02:29.335Z,0.00
2018-06-14T01:03:29.332Z,0.00
2018-06-14T01:04:29.323Z,0.00
2018-06-14T01:05:29.318Z,0.00
2018-06-14T01:06:29.316Z,0.00
2018-06-14T01:07:29.314Z,0.00
2018-06-14T01:08:29.307Z,0.00
2018-06-14T01:09:29.300Z,0.00
2018-06-14T01:10:29.291Z,0.00
2018-06-14T01:11:29.285Z,0.00
2018-06-14T01:12:29.280Z,0.00
2018-06-14T01:13:29.281Z,0.00
2018-06-14T01:14:29.275Z,0.00
2018-06-14T01:15:29.269Z,0.00
2018-06-14T01:16:29.259Z,0.00
2018-06-14T01:17:29.253Z,0.00
2018-06-14T01:18:29.254Z,0.00
2018-06-14T01:19:29.248Z,0.00
2018-06-14T01:20:29.241Z,0.00
2018-06-14T01:21:29.237Z,0.00
2018-06-14T01:22:29.226Z,0.00
2018-06-14T01:23:29.221Z,0.00
2018-06-14T01:24:29.215Z,0.00
2018-06-14T01:25:29.211Z,0.00
2018-06-14T01:26:29.209Z,0.00
2018-06-14T01:27:29.204Z,0.00
2018-06-14T01:28:29.198Z,0.00
2018-06-14T01:29:29.193Z,0.00
2018-06-14T01:30:29.184Z,0.00
2018-06-14T01:31:29.178Z,0.00
2018-06-14T01:32:29.178Z,0.00
2018-06-14T01:33:29.173Z,0.00
2018-06-14T01:34:29.162Z,0.00
2018-06-14T01:35:29.156Z,0.00
2018-06-14T01:36:29.151Z,0.00
2018-06-14T01:37:29.145Z,0.00
2018-06-14T01:38:29.144Z,0.00
2018-06-14T01:39:29.138Z,0.00
2018-06-14T01:40:29.133Z,0.00
2018-06-14T01:41:29.128Z,0.00
2018-06-14T01:42:29.122Z,0.00
2018-06-14T01:43:29.112Z,0.00
2018-06-14T01:44:29.107Z,0.00
2018-06-14T01:45:29.103Z,0.00
2018-06-14T01:46:29.101Z,0.00
2018-06-14T01:47:29.097Z,0.00
2018-06-14T01:48:29.085Z,0.00
2018-06-14T01:49:29.080Z,0.00
2018-06-14T01:50:29.080Z,0.00
2018-06-14T01:51:29.073Z,0.00
2018-06-14T01:52:29.067Z,0.00
2018-06-14T01:53:29.063Z,0.00
2018-06-14T01:54:29.053Z,0.00
2018-06-14T01:55:29.049Z,0.00
2018-06-14T01:56:29.041Z,0.00
2018-06-14T01:57:29.037Z,0.00
2018-06-14T01:58:29.036Z,0.00
2018-06-14T01:59:29.029Z,0.00
2018-06-14T02:00:29.029Z,0.00
2018-06-14T02:01:29.020Z,0.00
2018-06-14T02:02:29.009Z,0.00
2018-06-14T02:03:29.003Z,0.00
2018-06-14T02:04:29.003Z,0.00
2018-06-14T02:05:28.997Z,0.00
2018-06-14T02:06:28.987Z,0.00
2018-06-14T02:07:28.980Z,0.00
2018-06-14T02:08:28.976Z,0.00
2018-06-14T02:09:28.971Z,0.00
2018-06-14T02:10:28.970Z,0.00
2018-06-14T02:11:28.963Z,0.00
2018-06-14T02:12:28.958Z,0.00
2018-06-14T02:13:28.953Z,0.00
2018-06-14T02:14:28.943Z,0.00
2018-06-14T02:15:28.938Z,0.00
2018-06-14T02:16:28.931Z,0.00
2018-06-14T02:17:28.926Z,0.00
2018-06-14T02:18:28.925Z,0.00
2018-06-14T02:19:28.921Z,0.00
2018-06-14T02:20:28.909Z,0.00
2018-06-14T02:21:28.908Z,0.00
2018-06-14T02:22:28.908Z,0.00
2018-06-14T02:23:28.896Z,0.00
2018-06-14T02:24:28.892Z,0.00
2018-06-14T02:25:28.887Z,0.00
2018-06-14T02:26:28.876Z,0.00
2018-06-14T02:27:28.871Z,0.00
2018-06-14T02:28:28.865Z,0.00
2018-06-14T02:29:28.860Z,0.00
2018-06-14T02:30:28.859Z,0.00
2018-06-14T02:31:28.854Z,0.00
2018-06-14T02:32:28.846Z,0.00
2018-06-14T02:33:28.842Z,0.00
2018-06-14T02:34:28.832Z,0.00
2018-06-14T02:35:28.826Z,0.00
2018-06-14T02:36:28.828Z,0.00
2018-06-14T02:37:28.819Z,0.00
2018-06-14T02:38:28.810Z,0.00
2018-06-14T02:39:28.803Z,0.00
2018-06-14T02:40:28.798Z,0.00
2018-06-14T02:41:28.794Z,0.00
2018-06-14T02:42:28.792Z,0.00
2018-06-14T02:43:28.785Z,0.00
2018-06-14T02:44:28.788Z,0.00
2018-06-14T02:45:28.776Z,0.00
2018-06-14T02:46:28.764Z,0.00
2018-06-14T02:47:28.760Z,0.00
2018-06-14T02:48:28.752Z,0.00
2018-06-14T02:49:28.747Z,0.00
2018-06-14T02:50:28.750Z,0.00
2018-06-14T02:51:28.740Z,0.00
2018-06-14T02:52:28.731Z,0.00
2018-06-14T02:53:28.728Z,0.00
2018-06-14T02:54:28.724Z,0.00
2018-06-14T02:55:28.727Z,0.00
2018-06-14T02:56:28.713Z,0.00
2018-06-14T02:57:28.708Z,0.00
2018-06-14T02:58:28.698Z,0.00
2018-06-14T02:59:28.690Z,0.00
2018-06-14T03:00:28.686Z,0.00
2018-06-14T03:01:28.680Z,5.63
2018-06-14T03:02:28.680Z,5.63
2018-06-14T03:03:28.672Z,5.63
2018-06-14T03:04:28.667Z,5.63
2018-06-14T03:05:28.662Z,5.63
2018-06-14T03:06:28.652Z,5.63
2018-06-14T03:07:28.645Z,5.63
2018-06-14T03:08:28.644Z,5.63
2018-06-14T03:09:28.639Z,5.63
2018-06-14T03:10:28.629Z,5.63
2018-06-14T03:11:28.625Z,5.63
2018-06-14T03:12:28.618Z,5.63
2018-06-14T03:13:28.613Z,11.25
2018-06-14T03:14:28.612Z,11.25
2018-06-14T03:15:28.605Z,11.25
2018-06-14T03:16:28.599Z,11.25
2018-06-14T03:17:28.594Z,11.25
2018-06-14T03:18:28.584Z,11.25
2018-06-14T03:19:28.577Z,11.25
2018-06-14T03:20:28.573Z,16.88
2018-06-14T03:21:28.567Z,16.88
2018-06-14T03:22:28.567Z,16.88
2018-06-14T03:23:28.559Z,16.88
2018-06-14T03:24:28.549Z,16.88
2018-06-14T03:25:28.545Z,22.50
2018-06-14T03:26:28.547Z,22.50
2018-06-14T03:27:28.538Z,22.50
2018-06-14T03:28:28.531Z,28.13
2018-06-14T03:29:28.526Z,28.13
2018-06-14T03:30:28.516Z,28.13
2018-06-14T03:31:28.510Z,28.13
2018-06-14T03:32:28.505Z,33.75
2018-06-14T03:33:28.499Z,33.75
2018-06-14T03:34:28.498Z,33.75
2018-06-14T03:35:28.492Z,39.38
2018-06-14T03:36:28.489Z,39.38
2018-06-14T03:37:28.482Z,39.38
2018-06-14T03:38:28.472Z,45.00
2018-06-14T03:39:28.465Z,45.00
2018-06-14T03:40:28.466Z,45.00
2018-06-14T03:41:28.459Z,50.63
2018-06-14T03:42:28.450Z,50.63
2018-06-14T03:43:28.451Z,50.63
2018-06-14T03:44:28.439Z,50.63
2018-06-14T03:45:28.435Z,56.25
2018-06-14T03:46:28.476Z,56.25
2018-06-14T03:47:28.425Z,56.25
2018-06-14T03:48:28.421Z,61.88
2018-06-14T03:49:28.415Z,61.88
2018-06-14T03:50:28.405Z,67.50
2018-06-14T03:51:28.402Z,67.50
2018-06-14T03:52:28.395Z,67.50
2018-06-14T03:53:28.390Z,73.13
2018-06-14T03:54:28.389Z,73.13
2018-06-14T03:55:28.384Z,73.13
2018-06-14T03:56:28.374Z,78.75
2018-06-14T03:57:28.368Z,78.75
2018-06-14T03:58:28.399Z,78.75
2018-06-14T03:59:28.363Z,84.38
2018-06-14T04:00:28.356Z,84.38
2018-06-14T04:01:28.351Z,90.00
2018-06-14T04:02:28.343Z,90.00
2018-06-14T04:03:28.336Z,90.00
2018-06-14T04:04:28.332Z,90.00
2018-06-14T04:05:28.326Z,95.63
2018-06-14T04:06:28.328Z,95.63
2018-06-14T04:07:28.325Z,95.63
2018-06-14T04:08:28.317Z,101.25
2018-06-14T04:09:28.310Z,106.88
2018-06-14T04:10:28.393Z,112.50
2018-06-14T04:11:28.295Z,118.13
2018-06-14T04:12:28.294Z,123.75
2018-06-14T04:13:28.291Z,129.38
2018-06-14T04:14:28.283Z,140.63
2018-06-14T04:15:28.275Z,146.25
2018-06-14T04:16:28.270Z,157.50
2018-06-14T04:17:28.265Z,168.75
2018-06-14T04:18:28.273Z,180.00
2018-06-14T04:19:28.260Z,191.25
2018-06-14T04:20:28.267Z,202.50
2018-06-14T04:21:28.250Z,208.13
2018-06-14T04:22:28.241Z,208.13
2018-06-14T04:23:28.235Z,213.75
2018-06-14T04:24:28.231Z,208.13
2018-06-14T04:25:28.225Z,196.88
2018-06-14T04:26:28.225Z,196.88
2018-06-14T04:27:28.259Z,196.88
2018-06-14T04:28:28.210Z,202.50
2018-06-14T04:29:28.205Z,202.50
2018-06-14T04:30:28.205Z,202.50
2018-06-14T04:31:28.200Z,202.50
2018-06-14T04:32:28.197Z,202.50
2018-06-14T04:33:28.194Z,202.50
2018-06-14T04:34:28.182Z,208.13
2018-06-14T04:35:28.177Z,213.75
2018-06-14T04:36:28.173Z,219.38
2018-06-14T04:37:28.169Z,225.00
2018-06-14T04:38:28.169Z,225.00
2018-06-14T04:39:28.163Z,230.63
2018-06-14T04:40:28.157Z,236.25
2018-06-14T04:41:28.154Z,247.50
2018-06-14T04:42:28.144Z,253.13
2018-06-14T04:43:28.139Z,258.75
2018-06-14T04:44:28.141Z,264.38
2018-06-14T04:45:28.136Z,275.63
2018-06-14T04:46:28.126Z,281.25
2018-06-14T04:47:28.121Z,281.25
2018-06-14T04:48:28.117Z,292.50
2018-06-14T04:49:28.115Z,286.88
2018-06-14T04:50:28.113Z,281.25
2018-06-14T04:51:28.108Z,286.88
2018-06-14T04:52:28.104Z,298.13
2018-06-14T04:53:28.153Z,309.38
2018-06-14T04:54:28.091Z,337.50
2018-06-14T04:55:28.087Z,365.63
2018-06-14T04:56:28.082Z,427.50
2018-06-14T04:57:28.077Z,466.88
2018-06-14T04:58:28.077Z,483.75
2018-06-14T04:59:28.073Z,551.25
2018-06-14T05:00:28.066Z,573.75
2018-06-14T05:01:28.061Z,585.00
2018-06-14T05:02:28.067Z,601.88
2018-06-14T05:03:28.058Z,641.25
2018-06-14T05:04:28.056Z,680.63
2018-06-14T05:05:28.053Z,708.75
2018-06-14T05:06:28.045Z,725.63
2018-06-14T05:07:28.042Z,770.63
2018-06-14T05:08:28.039Z,793.13
2018-06-14T05:09:28.037Z,804.38
2018-06-14T05:10:28.040Z,798.75
2018-06-14T05:11:28.037Z,815.63
2018-06-14T05:12:28.036Z,838.13
2018-06-14T05:13:28.033Z,860.63
2018-06-14T05:14:28.028Z,855.00
2018-06-14T05:15:28.026Z,855.00
2018-06-14T05:16:28.030Z,849.38
2018-06-14T05:17:28.029Z,888.75
2018-06-14T05:18:28.024Z,905.63
2018-06-14T05:19:28.023Z,945.00
2018-06-14T05:20:28.024Z,956.25
2018-06-14T05:21:28.023Z,984.38
2018-06-14T05:22:28.028Z,978.75
2018-06-14T05:23:28.081Z,961.88
2018-06-14T05:24:28.027Z,1029.38
2018-06-14T05:25:28.028Z,1040.63
2018-06-14T05:26:28.024Z,1063.13
2018-06-14T05:27:28.024Z,1080.00
2018-06-14T05:28:28.027Z,1068.75
2018-06-14T05:29:28.027Z,1091.25
2018-06-14T05:30:28.033Z,1102.50
2018-06-14T05:31:28.033Z,1119.38
2018-06-14T05:32:28.030Z,1136.25
2018-06-14T05:33:28.033Z,1141.88
2018-06-14T05:34:28.040Z,1153.13
2018-06-14T05:35:28.040Z,1175.63
2018-06-14T05:36:28.042Z,1186.88
2018-06-14T05:37:28.044Z,1198.13
2018-06-14T05:38:28.043Z,1203.75
2018-06-14T05:39:28.044Z,1215.00
2018-06-14T05:40:28.047Z,1231.88
2018-06-14T05:41:28.049Z,1198.13
2018-06-14T05:42:28.063Z,1248.75
2018-06-14T05:43:28.058Z,1254.38
2018-06-14T05:44:28.063Z,1254.38
2018-06-14T05:45:28.065Z,1276.88
2018-06-14T05:46:28.064Z,1288.13
2018-06-14T05:47:28.067Z,1299.38
2018-06-14T05:48:28.076Z,1321.88
2018-06-14T05:49:28.078Z,1316.25
2018-06-14T05:50:28.078Z,1321.88
2018-06-14T05:51:28.080Z,1344.38
2018-06-14T05:52:28.084Z,1344.38
2018-06-14T05:53:28.088Z,1361.25
2018-06-14T05:54:28.096Z,1389.38
2018-06-14T05:55:28.100Z,1389.38
2018-06-14T05:56:28.104Z,1366.88
2018-06-14T05:57:28.109Z,1389.38
2018-06-14T05:58:28.109Z,1406.25
2018-06-14T05:59:28.111Z,1372.50
2018-06-14T06:00:28.115Z,1406.25
2018-06-14T06:01:28.120Z,1411.88
2018-06-14T06:02:28.129Z,1361.25
2018-06-14T06:03:28.137Z,1372.50
2018-06-14T06:04:28.134Z,1456.88
2018-06-14T06:05:28.138Z,1479.38
2018-06-14T06:06:28.200Z,1485.00
2018-06-14T06:07:28.150Z,1445.63
2018-06-14T06:08:28.155Z,1462.50
2018-06-14T06:09:28.160Z,1305.00
2018-06-14T06:10:28.161Z,1344.38
2018-06-14T06:11:28.166Z,1440.00
2018-06-14T06:12:28.170Z,1428.75
2018-06-14T06:13:28.176Z,1434.38
2018-06-14T06:14:28.186Z,1546.88
2018-06-14T06:15:28.189Z,1591.88
2018-06-14T06:16:28.195Z,1451.25
2018-06-14T06:17:28.200Z,1580.63
2018-06-14T06:18:28.201Z,1530.00
2018-06-14T06:19:28.206Z,1417.50
2018-06-14T06:20:28.216Z,1361.25
2018-06-14T06:21:28.220Z,1518.75
2018-06-14T06:22:28.221Z,1563.75
2018-06-14T06:23:28.282Z,1552.50
2018-06-14T06:24:28.232Z,1535.63
2018-06-14T06:25:28.238Z,1490.63
2018-06-14T06:26:28.303Z,1575.00
2018-06-14T06:27:28.252Z,1541.25
2018-06-14T06:28:28.259Z,1552.50
2018-06-14T06:29:28.264Z,1541.25
2018-06-14T06:30:28.267Z,1631.25
2018-06-14T06:31:28.270Z,1653.75
2018-06-14T06:32:28.275Z,1681.88
2018-06-14T06:33:28.368Z,1710.00
2018-06-14T06:34:28.295Z,1749.38
2018-06-14T06:35:28.297Z,1766.25
2018-06-14T06:36:28.299Z,1771.88
2018-06-14T06:37:28.306Z,1771.88
2018-06-14T06:38:28.316Z,1777.50
2018-06-14T06:39:28.321Z,1788.75
2018-06-14T06:40:28.328Z,1794.38
2018-06-14T06:41:28.334Z,1794.38
2018-06-14T06:42:28.336Z,1805.63
2018-06-14T06:43:28.342Z,1760.63
2018-06-14T06:44:28.349Z,1833.75
2018-06-14T06:45:28.363Z,1811.25
2018-06-14T06:46:28.369Z,1845.00
2018-06-14T06:47:28.374Z,1861.88
2018-06-14T06:48:28.381Z,1839.38
2018-06-14T06:49:28.389Z,1580.63
2018-06-14T06:50:28.394Z,1473.75
2018-06-14T06:51:28.400Z,1620.00
2018-06-14T06:52:28.411Z,1811.25
2018-06-14T06:53:28.431Z,1828.13
2018-06-14T06:54:28.423Z,1906.88
2018-06-14T06:55:28.431Z,1957.50
2018-06-14T06:56:28.439Z,1884.38
2018-06-14T06:57:28.447Z,1957.50
2018-06-14T06:58:28.461Z,1923.75
2018-06-14T06:59:28.469Z,1906.88
2018-06-14T07:00:28.478Z,1895.63
2018-06-14T07:01:28.487Z,1940.63
2018-06-14T07:02:28.490Z,1946.25
2018-06-14T07:03:28.500Z,1940.63
2018-06-14T07:04:28.506Z,1940.63
2018-06-14T07:05:28.516Z,2019.38
2018-06-14T07:06:28.567Z,2013.75
2018-06-14T07:07:28.538Z,2047.50
2018-06-14T07:08:28.544Z,2013.75
2018-06-14T07:09:28.559Z,2064.38
2018-06-14T07:10:28.566Z,2126.25
2018-06-14T07:11:28.629Z,2154.38
2018-06-14T07:12:28.585Z,2160.00
2018-06-14T07:13:28.596Z,2182.50
2018-06-14T07:14:28.598Z,2182.50
2018-06-14T07:15:28.608Z,2233.13
2018-06-14T07:16:28.626Z,2362.50
2018-06-14T07:17:28.626Z,2480.63
2018-06-14T07:18:28.641Z,2655.00
2018-06-14T07:19:28.650Z,2407.50
2018-06-14T07:20:28.658Z,2790.00
2018-06-14T07:21:28.724Z,2593.13
2018-06-14T07:22:28.674Z,1884.38
2018-06-14T07:23:28.713Z,3425.63
2018-06-14T07:24:28.697Z,1423.13
2018-06-14T07:25:28.709Z,2908.13
2018-06-14T07:26:28.713Z,1653.75
2018-06-14T07:27:28.722Z,3189.38
2018-06-14T07:28:28.731Z,3234.38
2018-06-14T07:29:28.742Z,3313.13
2018-06-14T07:30:28.758Z,3543.75
2018-06-14T07:31:28.765Z,3504.38
2018-06-14T07:32:28.779Z,2643.75
2018-06-14T07:33:28.785Z,3150.00
2018-06-14T07:34:28.791Z,3346.88
2018-06-14T07:35:28.800Z,3285.00
2018-06-14T07:36:28.809Z,3555.00
2018-06-14T07:37:28.818Z,3864.38
2018-06-14T07:38:28.833Z,3954.38
2018-06-14T07:39:28.843Z,3830.63
2018-06-14T07:40:28.849Z,3898.13
2018-06-14T07:41:28.857Z,3903.75
2018-06-14T07:42:28.873Z,3982.50
2018-06-14T07:43:28.883Z,4348.13
2018-06-14T07:44:28.893Z,4545.00
2018-06-14T07:45:28.904Z,4629.38
2018-06-14T07:46:28.911Z,4758.75
2018-06-14T07:47:28.921Z,4882.50
2018-06-14T07:48:28.932Z,4747.50
2018-06-14T07:49:28.944Z,4331.25
2018-06-14T07:50:28.961Z,4044.38
2018-06-14T07:51:28.971Z,4314.38
2018-06-14T07:52:28.984Z,4550.63
2018-06-14T07:53:28.995Z,4590.00
2018-06-14T07:54:29.005Z,4095.00
2018-06-14T07:55:29.015Z,4230.00
2018-06-14T07:56:29.034Z,4539.38
2018-06-14T07:57:29.046Z,4505.63
2018-06-14T07:58:29.054Z,4376.25
2018-06-14T07:59:29.066Z,4263.75
2018-06-14T08:00:29.079Z,4179.38
2018-06-14T08:01:29.092Z,4128.75
2018-06-14T08:02:29.110Z,4117.50
2018-06-14T08:03:29.123Z,4207.50
2018-06-14T08:04:29.137Z,3993.75
2018-06-14T08:05:29.150Z,3808.13
2018-06-14T08:06:29.220Z,4033.13
2018-06-14T08:07:29.173Z,4201.88
2018-06-14T08:08:29.189Z,4100.63
2018-06-14T08:09:29.206Z,3780.00
2018-06-14T08:10:29.221Z,3819.38
2018-06-14T08:11:29.235Z,3785.63
2018-06-14T08:12:29.259Z,4539.38
2018-06-14T08:13:29.259Z,5113.13
2018-06-14T08:14:29.279Z,4691.25
2018-06-14T08:15:29.293Z,4218.75
2018-06-14T08:16:29.308Z,3988.13
2018-06-14T08:17:29.323Z,4078.13
2018-06-14T08:18:29.335Z,4072.50
2018-06-14T08:19:29.351Z,4123.13
2018-06-14T08:20:29.365Z,4145.63
2018-06-14T08:21:29.380Z,3971.25
2018-06-14T08:22:29.401Z,3915.00
2018-06-14T08:23:29.417Z,3909.38
2018-06-14T08:24:29.434Z,3943.13
2018-06-14T08:25:29.452Z,2458.13
2018-06-14T08:26:29.462Z,3296.25
2018-06-14T08:27:29.478Z,4038.75
2018-06-14T08:28:29.500Z,3926.25
2018-06-14T08:29:29.516Z,939.38
2018-06-14T08:30:29.528Z,776.25
2018-06-14T08:31:29.543Z,630.00
2018-06-14T08:32:29.559Z,3498.75
2018-06-14T08:33:29.575Z,3718.13
2018-06-14T08:34:29.595Z,3926.25
2018-06-14T08:35:29.611Z,4089.38
2018-06-14T08:36:29.626Z,4156.88
2018-06-14T08:37:29.641Z,4066.88
2018-06-14T08:38:29.652Z,4128.75
2018-06-14T08:39:29.667Z,4421.25
2018-06-14T08:40:29.683Z,4601.25
2018-06-14T08:41:29.698Z,1800.00
2018-06-14T08:42:29.722Z,1164.38
2018-06-14T08:43:29.734Z,1215.00
2018-06-14T08:44:29.747Z,1035.00
2018-06-14T08:45:29.762Z,832.50
2018-06-14T08:46:29.783Z,686.25
2018-06-14T08:47:29.796Z,601.88
2018-06-14T08:48:29.813Z,540.00
2018-06-14T08:49:29.829Z,489.38
2018-06-14T08:50:29.838Z,461.25
2018-06-14T08:51:29.852Z,461.25
2018-06-14T08:52:29.865Z,472.50
2018-06-14T08:53:29.883Z,495.00
2018-06-14T08:54:29.898Z,556.88
2018-06-14T08:55:29.909Z,613.13
2018-06-14T08:56:29.920Z,714.38
2018-06-14T08:57:29.931Z,804.38
2018-06-14T08:58:29.938Z,1237.50
2018-06-14T08:59:29.948Z,4651.88
2018-06-14T09:00:29.963Z,1046.25
2018-06-14T09:01:29.974Z,731.25
2018-06-14T09:02:29.979Z,590.63
2018-06-14T09:03:29.988Z,472.50
2018-06-14T09:04:30.003Z,427.50
2018-06-14T09:05:30.008Z,427.50
2018-06-14T09:06:30.023Z,433.13
2018-06-14T09:07:30.029Z,433.13
2018-06-14T09:08:30.038Z,438.75
2018-06-14T09:09:30.049Z,478.13
2018-06-14T09:10:30.049Z,551.25
2018-06-14T09:11:30.059Z,511.88
2018-06-14T09:12:30.063Z,472.50
2018-06-14T09:13:30.073Z,472.50
2018-06-14T09:14:30.083Z,511.88
2018-06-14T09:15:30.089Z,607.50
2018-06-14T09:16:30.091Z,675.00
2018-06-14T09:17:30.098Z,736.88
2018-06-14T09:18:30.111Z,2013.75
2018-06-14T09:19:30.115Z,3324.38
2018-06-14T09:20:30.122Z,1361.25
2018-06-14T09:21:30.129Z,4370.63
2018-06-14T09:22:30.130Z,1035.00
2018-06-14T09:23:30.136Z,4100.63
2018-06-14T09:24:30.145Z,939.38
2018-06-14T09:25:30.151Z,838.13
2018-06-14T09:26:30.164Z,3920.63
2018-06-14T09:27:30.169Z,883.13
2018-06-14T09:28:30.176Z,855.00
2018-06-14T09:29:30.184Z,911.25
2018-06-14T09:30:30.190Z,4545.00
2018-06-14T09:31:30.196Z,3459.38
2018-06-14T09:32:30.205Z,3875.63
2018-06-14T09:33:30.213Z,3881.25
2018-06-14T09:34:30.217Z,3948.75
2018-06-14T09:35:30.224Z,4066.88
2018-06-14T09:36:30.233Z,3706.88
2018-06-14T09:37:30.242Z,4055.63
2018-06-14T09:38:30.258Z,2115.00
2018-06-14T09:39:30.266Z,1316.25
2018-06-14T09:40:30.278Z,1113.75
2018-06-14T09:41:30.290Z,3498.75
2018-06-14T09:42:30.296Z,961.88
2018-06-14T09:43:30.307Z,826.88
2018-06-14T09:44:30.319Z,815.63
2018-06-14T09:45:30.329Z,956.25
2018-06-14T09:46:30.345Z,1299.38
2018-06-14T09:47:30.355Z,1035.00
2018-06-14T09:48:30.363Z,1001.25
2018-06-14T09:49:30.375Z,950.63
2018-06-14T09:50:30.388Z,894.38
2018-06-14T09:51:30.397Z,1029.38
2018-06-14T09:52:30.408Z,3594.38
2018-06-14T09:53:30.418Z,1186.88
2018-06-14T09:54:30.422Z,1372.50
2018-06-14T09:55:30.430Z,1811.25
2018-06-14T09:56:30.443Z,1755.00
2018-06-14T09:57:30.449Z,877.50
2018-06-14T09:58:30.464Z,742.50
2018-06-14T09:59:30.471Z,725.63
2018-06-14T10:00:30.503Z,916.88
2018-06-14T10:01:30.490Z,3026.25
2018-06-14T10:02:30.495Z,3071.25
2018-06-14T10:03:30.502Z,2829.38
2018-06-14T10:04:30.516Z,1563.75
2018-06-14T10:05:30.526Z,1186.88
2018-06-14T10:06:30.531Z,945.00
2018-06-14T10:07:30.539Z,821.25
2018-06-14T10:08:30.550Z,765.00
2018-06-14T10:09:30.558Z,708.75
2018-06-14T10:10:30.573Z,680.63
2018-06-14T10:11:30.582Z,697.50
2018-06-14T10:12:30.592Z,753.75
2018-06-14T10:13:30.602Z,1029.38
2018-06-14T10:14:30.609Z,3206.25
2018-06-14T10:15:30.614Z,1603.13
2018-06-14T10:16:30.625Z,1141.88
2018-06-14T10:17:30.632Z,1181.25
2018-06-14T10:18:30.645Z,4410.00
2018-06-14T10:19:30.653Z,4021.88
2018-06-14T10:20:30.658Z,3999.38
2018-06-14T10:21:30.674Z,3583.13
2018-06-14T10:22:30.682Z,2295.00
2018-06-14T10:23:30.690Z,2795.63
2018-06-14T10:24:30.705Z,3206.25
2018-06-14T10:25:30.712Z,2716.88
2018-06-14T10:26:30.717Z,3268.13
2018-06-14T10:27:30.729Z,2396.25
2018-06-14T10:28:30.736Z,2728.13
2018-06-14T10:29:30.748Z,3082.50
2018-06-14T10:30:30.764Z,2767.50
2018-06-14T10:31:30.773Z,2947.50
2018-06-14T10:32:30.784Z,2283.75
2018-06-14T10:33:30.795Z,2266.88
2018-06-14T10:34:30.810Z,1996.88
2018-06-14T10:35:30.812Z,1856.25
2018-06-14T10:36:30.828Z,1867.50
2018-06-14T10:37:30.839Z,1828.13
2018-06-14T10:38:30.846Z,1721.25
2018-06-14T10:39:30.855Z,1873.13
2018-06-14T10:40:30.866Z,1715.63
2018-06-14T10:41:30.879Z,1687.50
2018-06-14T10:42:30.894Z,2739.38
2018-06-14T10:43:30.938Z,1833.75
2018-06-14T10:44:30.916Z,1755.00
2018-06-14T10:45:30.924Z,1873.13
2018-06-14T10:46:30.930Z,1918.13
2018-06-14T10:47:30.940Z,2975.63
2018-06-14T10:48:30.950Z,2925.00
2018-06-14T10:49:30.962Z,1811.25
2018-06-14T10:50:30.976Z,2806.88
2018-06-14T10:51:30.985Z,1963.13
2018-06-14T10:52:31.046Z,1788.75
2018-06-14T10:53:31.003Z,1530.00
2018-06-14T10:54:31.016Z,1479.38
2018-06-14T10:55:31.025Z,1597.50
2018-06-14T10:56:31.036Z,1839.38
2018-06-14T10:57:31.046Z,1715.63
2018-06-14T10:58:31.054Z,1951.88
2018-06-14T10:59:31.061Z,1721.25
2018-06-14T11:00:31.070Z,2233.13
2018-06-14T11:01:31.081Z,1738.13
2018-06-14T11:02:31.094Z,1732.50
2018-06-14T11:03:31.103Z,1743.75
2018-06-14T11:04:31.114Z,1788.75
2018-06-14T11:05:31.125Z,1726.88
2018-06-14T11:06:31.129Z,1901.25
2018-06-14T11:07:31.137Z,2047.50
2018-06-14T11:08:31.150Z,1530.00
2018-06-14T11:09:31.162Z,1563.75
2018-06-14T11:10:31.164Z,2058.75
2018-06-14T11:11:31.172Z,3037.50
2018-06-14T11:12:31.182Z,1558.13
2018-06-14T11:13:31.191Z,1546.88
2018-06-14T11:14:31.204Z,1698.75
2018-06-14T11:15:31.264Z,1406.25
2018-06-14T11:16:31.222Z,1485.00
2018-06-14T11:17:31.231Z,1777.50
2018-06-14T11:18:31.235Z,2930.63
2018-06-14T11:19:31.247Z,1873.13
2018-06-14T11:20:31.253Z,2019.38
2018-06-14T11:21:31.261Z,1681.88
2018-06-14T11:22:31.279Z,1760.63
2018-06-14T11:23:31.285Z,1794.38
2018-06-14T11:24:31.287Z,1721.25
2018-06-14T11:25:31.298Z,1642.50
2018-06-14T11:26:31.309Z,1400.63
2018-06-14T11:27:31.318Z,1316.25
2018-06-14T11:28:31.327Z,1333.13
2018-06-14T11:29:31.337Z,1260.00
2018-06-14T11:30:31.339Z,1198.13
2018-06-14T11:31:31.349Z,1231.88
2018-06-14T11:32:31.358Z,1260.00
2018-06-14T11:33:31.364Z,1338.75
2018-06-14T11:34:31.376Z,1361.25
2018-06-14T11:35:31.384Z,1355.63
2018-06-14T11:36:31.394Z,1299.38
2018-06-14T11:37:31.402Z,1231.88
2018-06-14T11:38:31.405Z,1209.38
2018-06-14T11:39:31.415Z,1170.00
2018-06-14T11:40:31.425Z,1170.00
2018-06-14T11:41:31.436Z,1186.88
2018-06-14T11:42:31.436Z,1198.13
2018-06-14T11:43:31.442Z,1209.38
2018-06-14T11:44:31.452Z,1231.88
2018-06-14T11:45:31.458Z,1248.75
2018-06-14T11:46:31.470Z,1254.38
2018-06-14T11:47:31.500Z,1254.38
2018-06-14T11:48:31.485Z,1260.00
2018-06-14T11:49:31.492Z,1338.75
2018-06-14T11:50:31.498Z,1316.25
2018-06-14T11:51:31.502Z,1282.50
2018-06-14T11:52:31.510Z,1226.25
2018-06-14T11:53:31.520Z,1136.25
2018-06-14T11:54:31.529Z,1080.00
2018-06-14T11:55:31.536Z,1051.88
2018-06-14T11:56:31.538Z,1040.63
2018-06-14T11:57:31.546Z,1029.38
2018-06-14T11:58:31.557Z,1023.75
2018-06-14T11:59:31.569Z,1018.13
2018-06-14T12:00:31.573Z,1040.63
2018-06-14T12:01:31.580Z,1130.63
2018-06-14T12:02:31.582Z,1209.38
2018-06-14T12:03:31.588Z,1260.00
2018-06-14T12:04:31.596Z,1282.50
2018-06-14T12:05:31.602Z,1271.25
2018-06-14T12:06:31.616Z,1209.38
2018-06-14T12:07:31.620Z,1220.63
2018-06-14T12:08:31.628Z,1260.00
2018-06-14T12:09:31.633Z,1288.13
2018-06-14T12:10:31.636Z,1209.38
2018-06-14T12:11:31.643Z,1074.38
2018-06-14T12:12:31.656Z,1018.13
2018-06-14T12:13:31.660Z,1125.00
2018-06-14T12:14:31.670Z,1186.88
2018-06-14T12:15:31.669Z,1215.00
2018-06-14T12:16:31.678Z,1226.25
2018-06-14T12:17:31.684Z,1226.25
2018-06-14T12:18:31.698Z,1220.63
2018-06-14T12:19:31.701Z,1215.00
2018-06-14T12:20:31.710Z,1209.38
2018-06-14T12:21:31.719Z,1220.63
2018-06-14T12:22:31.717Z,1231.88
2018-06-14T12:23:31.724Z,1215.00
2018-06-14T12:24:31.729Z,1186.88
2018-06-14T12:25:31.737Z,1170.00
2018-06-14T12:26:31.751Z,1136.25
2018-06-14T12:27:31.754Z,1102.50
2018-06-14T12:28:31.758Z,1063.13
2018-06-14T12:29:31.764Z,1029.38
2018-06-14T12:30:31.776Z,1012.50